createdAt,value
2024-02-29T00:00:00.267Z,77.86
2024-02-29T00:00:11.028Z,77.86
2024-02-29T00:00:22.079Z,77.86
2024-02-29T00:00:33.156Z,77.86
2024-02-29T00:00:43.675Z,77.86
2024-02-29T00:00:54.503Z,77.86
2024-02-29T00:01:05.225Z,77.86
2024-02-29T00:01:15.802Z,77.86
2024-02-29T00:01:26.309Z,77.86
2024-02-29T00:01:37.118Z,77.97
2024-02-29T00:01:48.298Z,77.86
2024-02-29T00:01:58.894Z,77.86
2024-02-29T00:02:09.389Z,77.86
2024-02-29T00:02:20.071Z,77.86
2024-02-29T00:02:31.120Z,77.97
2024-02-29T00:02:42.083Z,77.86
2024-02-29T00:02:53.097Z,77.86
2024-02-29T00:03:03.770Z,77.86
2024-02-29T00:03:14.829Z,77.86
2024-02-29T00:03:25.823Z,77.86
2024-02-29T00:03:36.836Z,77.86
2024-02-29T00:03:47.544Z,77.86
2024-02-29T00:03:58.615Z,77.86
2024-02-29T00:04:09.663Z,77.86
2024-02-29T00:04:20.125Z,77.97
2024-02-29T00:04:30.804Z,77.97
2024-02-29T00:04:41.849Z,77.86
2024-02-29T00:04:52.830Z,77.86
2024-02-29T00:05:03.821Z,77.86
2024-02-29T00:05:14.511Z,77.86
2024-02-29T00:05:25.550Z,77.86
2024-02-29T00:05:36.528Z,77.86
2024-02-29T00:05:47.542Z,77.86
2024-02-29T00:05:58.211Z,77.86
2024-02-29T00:06:09.275Z,77.86
2024-02-29T00:06:20.229Z,77.86
2024-02-29T00:06:31.290Z,77.86
2024-02-29T00:06:41.959Z,77.86
2024-02-29T00:06:53.026Z,77.86
2024-02-29T00:07:04.178Z,77.86
2024-02-29T00:07:14.674Z,77.86
2024-02-29T00:07:25.342Z,77.86
2024-02-29T00:07:36.382Z,77.86
2024-02-29T00:07:47.346Z,77.86
2024-02-29T00:07:58.373Z,77.86
2024-02-29T00:08:09.056Z,77.86
2024-02-29T00:08:20.104Z,77.86
2024-02-29T00:08:31.071Z,77.86
2024-02-29T00:08:42.077Z,77.76
2024-02-29T00:08:52.765Z,77.76
2024-02-29T00:09:03.817Z,77.86
2024-02-29T00:09:14.779Z,77.86
2024-02-29T00:09:25.804Z,77.76
2024-02-29T00:09:36.486Z,77.76
2024-02-29T00:09:47.585Z,77.76
2024-02-29T00:09:58.576Z,77.76
2024-02-29T00:10:10.114Z,77.76
2024-02-29T00:10:20.502Z,77.76
2024-02-29T00:10:31.504Z,77.76
2024-02-29T00:10:42.493Z,77.76
2024-02-29T00:10:53.514Z,77.76
2024-02-29T00:11:04.198Z,77.76
2024-02-29T00:11:15.296Z,77.76
2024-02-29T00:11:26.282Z,77.76
2024-02-29T00:11:37.255Z,77.76
2024-02-29T00:11:47.939Z,77.76
2024-02-29T00:11:58.969Z,77.76
2024-02-29T00:12:09.932Z,77.76
2024-02-29T00:12:20.951Z,77.76
2024-02-29T00:12:31.651Z,77.76
2024-02-29T00:12:42.708Z,77.66
2024-02-29T00:12:53.672Z,77.76
2024-02-29T00:13:04.705Z,77.66
2024-02-29T00:13:15.365Z,77.66
2024-02-29T00:13:26.432Z,77.66
2024-02-29T00:13:37.366Z,77.66
2024-02-29T00:13:48.391Z,77.66
2024-02-29T00:13:59.064Z,77.66
2024-02-29T00:14:10.128Z,77.66
2024-02-29T00:14:21.080Z,77.66
2024-02-29T00:14:32.098Z,77.66
2024-02-29T00:14:42.789Z,77.66
2024-02-29T00:14:53.835Z,77.66
2024-02-29T00:15:04.787Z,77.66
2024-02-29T00:15:15.805Z,77.66
2024-02-29T00:15:26.557Z,77.66
2024-02-29T00:15:37.622Z,77.66
2024-02-29T00:15:48.625Z,77.66
2024-02-29T00:15:59.645Z,77.66
2024-02-29T00:16:10.364Z,77.66
2024-02-29T00:16:20.841Z,77.66
2024-02-29T00:16:31.810Z,77.66
2024-02-29T00:16:42.816Z,77.66
2024-02-29T00:16:53.490Z,77.55
2024-02-29T00:17:04.544Z,77.55
2024-02-29T00:17:15.489Z,77.55
2024-02-29T00:17:26.566Z,77.55
2024-02-29T00:17:37.217Z,77.55
2024-02-29T00:17:48.299Z,77.55
2024-02-29T00:17:59.257Z,77.55
2024-02-29T00:18:10.290Z,77.55
2024-02-29T00:18:20.941Z,77.55
2024-02-29T00:18:32.086Z,77.55
2024-02-29T00:18:43.241Z,77.55
2024-02-29T00:18:53.747Z,77.55
2024-02-29T00:19:04.480Z,77.55
2024-02-29T00:19:15.005Z,77.45
2024-02-29T00:19:25.940Z,77.45
2024-02-29T00:19:36.954Z,77.45
2024-02-29T00:19:47.631Z,77.45
2024-02-29T00:19:58.698Z,77.45
2024-02-29T00:20:09.653Z,77.45
2024-02-29T00:20:20.665Z,77.45
2024-02-29T00:20:31.356Z,77.45
2024-02-29T00:20:42.393Z,77.45
2024-02-29T00:20:53.022Z,77.45
2024-02-29T00:21:04.042Z,77.45
2024-02-29T00:21:14.732Z,77.45
2024-02-29T00:21:25.777Z,77.35
2024-02-29T00:21:39.359Z,77.35
2024-02-29T00:21:47.523Z,77.35
2024-02-29T00:21:58.299Z,77.35
2024-02-29T00:22:09.378Z,77.35
2024-02-29T00:22:20.323Z,77.35
2024-02-29T00:22:31.303Z,77.35
2024-02-29T00:22:41.972Z,77.35
2024-02-29T00:22:53.014Z,77.35
2024-02-29T00:23:03.971Z,77.35
2024-02-29T00:23:15.021Z,77.35
2024-02-29T00:23:25.701Z,77.35
2024-02-29T00:23:36.741Z,77.35
2024-02-29T00:23:47.714Z,77.35
2024-02-29T00:23:58.778Z,77.35
2024-02-29T00:24:09.445Z,77.35
2024-02-29T00:24:20.488Z,77.35
2024-02-29T00:24:31.465Z,77.35
2024-02-29T00:24:42.477Z,77.35
2024-02-29T00:24:53.146Z,77.45
2024-02-29T00:25:04.248Z,77.45
2024-02-29T00:25:15.231Z,77.45
2024-02-29T00:25:26.227Z,77.45
2024-02-29T00:25:36.903Z,77.35
2024-02-29T00:25:47.943Z,77.45
2024-02-29T00:25:58.939Z,77.45
2024-02-29T00:26:09.935Z,77.45
2024-02-29T00:26:20.620Z,77.45
2024-02-29T00:26:31.658Z,77.45
2024-02-29T00:26:42.636Z,77.45
2024-02-29T00:26:53.639Z,77.45
2024-02-29T00:27:04.315Z,77.45
2024-02-29T00:27:15.362Z,77.55
2024-02-29T00:27:26.347Z,77.55
2024-02-29T00:27:37.353Z,77.66
2024-02-29T00:27:48.026Z,77.66
2024-02-29T00:27:59.114Z,77.66
2024-02-29T00:28:10.095Z,77.66
2024-02-29T00:28:21.105Z,77.66
2024-02-29T00:28:31.772Z,77.66
2024-02-29T00:28:42.818Z,77.66
2024-02-29T00:28:53.803Z,77.66
2024-02-29T00:29:04.799Z,77.66
2024-02-29T00:29:15.485Z,77.66
2024-02-29T00:29:26.533Z,77.66
2024-02-29T00:29:37.496Z,77.66
2024-02-29T00:29:48.517Z,77.66
2024-02-29T00:29:59.215Z,77.66
2024-02-29T00:30:10.265Z,77.66
2024-02-29T00:30:21.224Z,77.66
2024-02-29T00:30:32.294Z,77.66
2024-02-29T00:30:42.938Z,77.66
2024-02-29T00:30:54.008Z,77.66
2024-02-29T00:31:04.961Z,77.66
2024-02-29T00:31:15.986Z,77.66
2024-02-29T00:31:26.646Z,77.66
2024-02-29T00:31:37.690Z,77.66
2024-02-29T00:31:48.660Z,77.66
2024-02-29T00:31:59.678Z,77.55
2024-02-29T00:32:10.375Z,77.55
2024-02-29T00:32:21.449Z,77.55
2024-02-29T00:32:32.421Z,77.45
2024-02-29T00:32:43.422Z,77.45
2024-02-29T00:32:56.727Z,77.45
2024-02-29T00:33:05.109Z,77.45
2024-02-29T00:33:15.598Z,77.45
2024-02-29T00:33:26.635Z,77.45
2024-02-29T00:33:37.344Z,77.45
2024-02-29T00:33:48.426Z,77.45
2024-02-29T00:33:59.416Z,77.45
2024-02-29T00:34:10.023Z,77.45
2024-02-29T00:34:20.743Z,77.45
2024-02-29T00:34:31.746Z,77.45
2024-02-29T00:34:42.715Z,77.45
2024-02-29T00:34:53.764Z,77.45
2024-02-29T00:35:04.442Z,77.45
2024-02-29T00:35:15.488Z,77.45
2024-02-29T00:35:26.464Z,77.45
2024-02-29T00:35:37.462Z,77.45
2024-02-29T00:35:49.680Z,77.45
2024-02-29T00:36:08.948Z,77.45
2024-02-29T00:36:10.510Z,77.45
2024-02-29T00:36:20.583Z,77.45
2024-02-29T00:36:31.338Z,77.45
2024-02-29T00:36:41.970Z,77.45
2024-02-29T00:36:52.903Z,77.45
2024-02-29T00:37:03.933Z,77.55
2024-02-29T00:37:14.614Z,77.55
2024-02-29T00:37:25.708Z,77.55
2024-02-29T00:37:36.666Z,77.55
2024-02-29T00:37:47.713Z,77.55
2024-02-29T00:37:58.363Z,77.66
2024-02-29T00:38:09.408Z,77.66
2024-02-29T00:38:20.370Z,77.66
2024-02-29T00:38:31.395Z,77.66
2024-02-29T00:38:42.092Z,77.69
2024-02-29T00:39:02.055Z,77.59
2024-02-29T00:39:11.571Z,77.55
2024-02-29T00:39:15.665Z,77.59
2024-02-29T00:39:25.791Z,77.55
2024-02-29T00:39:36.901Z,77.59
2024-02-29T00:39:47.859Z,77.59
2024-02-29T00:39:58.896Z,77.59
2024-02-29T00:40:09.616Z,77.59
2024-02-29T00:40:20.146Z,77.55
2024-02-29T00:40:31.080Z,77.45
2024-02-29T00:40:42.084Z,77.48
2024-02-29T00:40:52.766Z,77.48
2024-02-29T00:41:03.818Z,77.48
2024-02-29T00:41:14.778Z,77.45
2024-02-29T00:41:25.797Z,77.45
2024-02-29T00:41:36.475Z,77.45
2024-02-29T00:41:47.524Z,77.48
2024-02-29T00:41:58.474Z,77.45
2024-02-29T00:42:09.509Z,77.59
2024-02-29T00:42:20.185Z,77.55
2024-02-29T00:42:31.234Z,77.55
2024-02-29T00:42:42.216Z,77.59
2024-02-29T00:42:53.229Z,77.59
2024-02-29T00:43:03.955Z,77.59
2024-02-29T00:43:14.969Z,77.55
2024-02-29T00:43:25.918Z,77.59
2024-02-29T00:43:36.946Z,77.59
2024-02-29T00:43:47.630Z,77.59
2024-02-29T00:43:58.680Z,77.59
2024-02-29T00:44:09.627Z,77.59
2024-02-29T00:44:20.643Z,77.59
2024-02-29T00:44:31.333Z,77.59
2024-02-29T00:44:42.382Z,77.59
2024-02-29T00:44:53.339Z,77.55
2024-02-29T00:45:04.354Z,77.55
2024-02-29T00:45:15.068Z,77.59
2024-02-29T00:45:26.077Z,77.55
2024-02-29T00:45:37.096Z,77.59
2024-02-29T00:45:47.611Z,77.59
2024-02-29T00:45:58.309Z,77.59
2024-02-29T00:46:09.397Z,77.55
2024-02-29T00:46:20.304Z,77.55
2024-02-29T00:46:31.319Z,77.55
2024-02-29T00:46:41.994Z,77.69
2024-02-29T00:46:53.060Z,77.69
2024-02-29T00:47:04.036Z,77.69
2024-02-29T00:47:15.042Z,77.69
2024-02-29T00:47:25.754Z,77.69
2024-02-29T00:47:36.810Z,77.69
2024-02-29T00:47:47.754Z,77.69
2024-02-29T00:47:58.781Z,77.66
2024-02-29T00:48:09.466Z,77.69
2024-02-29T00:48:20.498Z,77.69
2024-02-29T00:48:31.468Z,77.69
2024-02-29T00:48:42.507Z,77.66
2024-02-29T00:48:53.194Z,77.69
2024-02-29T00:49:04.302Z,77.69
2024-02-29T00:49:15.374Z,77.69
2024-02-29T00:49:25.828Z,77.69
2024-02-29T00:49:36.505Z,77.59
2024-02-29T00:49:47.558Z,77.55
2024-02-29T00:49:58.532Z,77.45
2024-02-29T00:50:09.543Z,77.48
2024-02-29T00:50:20.195Z,77.48
2024-02-29T00:50:31.257Z,77.48
2024-02-29T00:50:42.203Z,77.48
2024-02-29T00:50:53.230Z,77.48
2024-02-29T00:51:03.896Z,77.48
2024-02-29T00:51:14.942Z,77.48
2024-02-29T00:51:25.906Z,77.48
2024-02-29T00:51:36.936Z,77.45
2024-02-29T00:51:47.724Z,77.35
2024-02-29T00:51:58.261Z,77.38
2024-02-29T00:52:09.427Z,77.38
2024-02-29T00:52:20.004Z,77.35
2024-02-29T00:52:30.663Z,77.38
2024-02-29T00:52:41.719Z,77.38
2024-02-29T00:52:52.670Z,77.35
2024-02-29T00:53:03.721Z,77.35
2024-02-29T00:53:14.372Z,77.38
2024-02-29T00:53:25.417Z,77.38
2024-02-29T00:53:36.374Z,77.28
2024-02-29T00:53:47.405Z,77.28
2024-02-29T00:53:58.098Z,77.28
2024-02-29T00:54:09.122Z,77.28
2024-02-29T00:54:20.095Z,77.28
2024-02-29T00:54:31.150Z,77.28
2024-02-29T00:54:41.824Z,77.28
2024-02-29T00:54:52.849Z,77.28
2024-02-29T00:55:03.911Z,77.28
2024-02-29T00:55:14.478Z,77.28
2024-02-29T00:55:25.160Z,77.38
2024-02-29T00:55:36.204Z,77.38
2024-02-29T00:55:47.183Z,77.38
2024-02-29T00:55:58.189Z,77.38
2024-02-29T00:56:08.868Z,77.48
2024-02-29T00:56:19.907Z,77.48
2024-02-29T00:56:30.869Z,77.48
2024-02-29T00:56:41.883Z,77.48
2024-02-29T00:56:52.563Z,77.59
2024-02-29T00:57:03.614Z,77.59
2024-02-29T00:57:14.579Z,77.59
2024-02-29T00:57:25.602Z,77.59
2024-02-29T00:57:36.284Z,77.59
2024-02-29T00:57:47.340Z,77.59
2024-02-29T00:57:58.289Z,77.69
2024-02-29T00:58:09.345Z,77.69
2024-02-29T00:58:19.993Z,77.69
2024-02-29T00:58:31.039Z,77.69
2024-02-29T00:58:42.015Z,77.69
2024-02-29T00:58:53.043Z,77.80
2024-02-29T00:59:03.752Z,77.80
2024-02-29T00:59:14.773Z,77.80
2024-02-29T00:59:25.744Z,77.80
2024-02-29T00:59:36.756Z,77.80
2024-02-29T00:59:47.425Z,77.80
2024-02-29T00:59:58.487Z,77.80
2024-02-29T01:00:09.446Z,77.80
2024-02-29T01:00:20.457Z,77.80
2024-02-29T01:00:31.237Z,77.90
2024-02-29T01:00:41.881Z,77.90
2024-02-29T01:00:52.370Z,77.90
2024-02-29T01:01:03.396Z,77.90
2024-02-29T01:01:14.260Z,77.90
2024-02-29T01:01:24.849Z,77.80
2024-02-29T01:01:35.921Z,77.80
2024-02-29T01:01:46.580Z,77.80
2024-02-29T01:01:57.455Z,77.80
2024-02-29T01:02:08.113Z,77.80
2024-02-29T01:02:19.039Z,77.80
2024-02-29T01:02:30.058Z,77.80
2024-02-29T01:02:40.739Z,77.80
2024-02-29T01:02:51.785Z,77.80
2024-02-29T01:03:02.749Z,77.80
2024-02-29T01:03:13.758Z,77.80
2024-02-29T01:03:24.443Z,77.80
2024-02-29T01:03:35.593Z,77.80
2024-02-29T01:03:46.566Z,77.80
2024-02-29T01:03:57.580Z,77.80
2024-02-29T01:04:08.362Z,77.80
2024-02-29T01:04:18.946Z,77.80
2024-02-29T01:04:29.889Z,77.80
2024-02-29T01:04:40.931Z,77.80
2024-02-29T01:04:51.588Z,77.80
2024-02-29T01:05:02.644Z,77.80
2024-02-29T01:05:13.660Z,77.80
2024-02-29T01:05:24.622Z,77.80
2024-02-29T01:05:35.316Z,77.80
2024-02-29T01:05:46.372Z,77.80
2024-02-29T01:05:57.338Z,77.80
2024-02-29T01:06:08.421Z,77.80
2024-02-29T01:06:19.099Z,77.80
2024-02-29T01:06:30.193Z,77.80
2024-02-29T01:06:41.179Z,77.80
2024-02-29T01:06:52.315Z,77.80
2024-02-29T01:07:03.030Z,77.80
2024-02-29T01:07:14.113Z,77.80
2024-02-29T01:07:25.058Z,77.90
2024-02-29T01:07:36.074Z,77.90
2024-02-29T01:07:46.767Z,77.90
2024-02-29T01:07:57.808Z,78.00
2024-02-29T01:08:08.780Z,78.00
2024-02-29T01:08:19.780Z,78.00
2024-02-29T01:08:30.463Z,78.00
2024-02-29T01:08:41.519Z,78.00
2024-02-29T01:08:52.468Z,78.11
2024-02-29T01:09:03.491Z,78.11
2024-02-29T01:09:14.171Z,78.11
2024-02-29T01:09:25.216Z,78.11
2024-02-29T01:09:36.312Z,78.11
2024-02-29T01:09:46.920Z,78.11
2024-02-29T01:09:57.660Z,78.11
2024-02-29T01:10:08.209Z,78.14
2024-02-29T01:10:19.184Z,78.14
2024-02-29T01:10:29.759Z,78.21
2024-02-29T01:10:40.469Z,78.21
2024-02-29T01:10:51.011Z,78.21
2024-02-29T01:11:02.023Z,78.24
2024-02-29T01:11:13.033Z,78.34
2024-02-29T01:11:23.738Z,78.31
2024-02-29T01:11:34.733Z,78.31
2024-02-29T01:11:45.765Z,78.34
2024-02-29T01:11:56.773Z,78.31
2024-02-29T01:12:07.440Z,78.31
2024-02-29T01:12:18.512Z,78.31
2024-02-29T01:12:29.477Z,78.31
2024-02-29T01:12:40.625Z,78.34
2024-02-29T01:12:51.472Z,78.31
2024-02-29T01:13:02.604Z,78.31
2024-02-29T01:13:13.096Z,78.31
2024-02-29T01:13:23.560Z,78.34
2024-02-29T01:13:34.236Z,78.31
2024-02-29T01:13:45.284Z,78.34
2024-02-29T01:13:56.249Z,78.31
2024-02-29T01:14:07.265Z,78.34
2024-02-29T01:14:17.952Z,78.31
2024-02-29T01:14:29.009Z,78.34
2024-02-29T01:14:39.963Z,78.34
2024-02-29T01:14:50.980Z,78.45
2024-02-29T01:15:01.660Z,78.45
2024-02-29T01:15:12.712Z,78.45
2024-02-29T01:15:23.669Z,78.45
2024-02-29T01:15:34.705Z,78.55
2024-02-29T01:15:45.395Z,78.52
2024-02-29T01:15:56.586Z,78.52
2024-02-29T01:16:07.005Z,78.55
2024-02-29T01:16:17.730Z,78.55
2024-02-29T01:16:28.379Z,78.52
2024-02-29T01:16:39.470Z,78.55
2024-02-29T01:16:50.422Z,78.55
2024-02-29T01:17:01.418Z,78.52
2024-02-29T01:17:12.097Z,78.55
2024-02-29T01:17:23.160Z,78.52
2024-02-29T01:17:34.160Z,78.55
2024-02-29T01:17:44.740Z,78.55
2024-02-29T01:17:55.453Z,78.55
2024-02-29T01:18:06.550Z,78.52
2024-02-29T01:18:17.544Z,78.52
2024-02-29T01:18:28.584Z,78.55
2024-02-29T01:18:39.276Z,78.52
2024-02-29T01:18:50.310Z,78.52
2024-02-29T01:19:01.323Z,78.55
2024-02-29T01:19:12.384Z,78.62
2024-02-29T01:19:23.062Z,78.66
2024-02-29T01:19:33.570Z,78.62
2024-02-29T01:19:44.532Z,78.62
2024-02-29T01:19:55.551Z,78.62
2024-02-29T01:20:06.222Z,78.62
2024-02-29T01:20:17.265Z,78.66
2024-02-29T01:20:28.229Z,78.62
2024-02-29T01:20:39.280Z,78.66
2024-02-29T01:20:49.949Z,78.76
2024-02-29T01:21:00.993Z,78.66
2024-02-29T01:21:11.967Z,78.62
2024-02-29T01:21:22.965Z,78.76
2024-02-29T01:21:33.691Z,78.66
2024-02-29T01:21:44.247Z,78.62
2024-02-29T01:21:55.240Z,78.72
2024-02-29T01:22:06.266Z,78.72
2024-02-29T01:22:18.296Z,78.76
2024-02-29T01:22:27.842Z,78.86
2024-02-29T01:22:38.800Z,78.83
2024-02-29T01:22:49.830Z,78.86
2024-02-29T01:23:00.497Z,78.83
2024-02-29T01:23:11.545Z,78.86
2024-02-29T01:23:22.503Z,78.86
2024-02-29T01:23:33.532Z,78.83
2024-02-29T01:23:44.210Z,78.86
2024-02-29T01:23:55.270Z,78.83
2024-02-29T01:24:06.248Z,78.83
2024-02-29T01:24:17.251Z,78.86
2024-02-29T01:24:27.934Z,78.86
2024-02-29T01:24:39.028Z,78.86
2024-02-29T01:24:50.015Z,78.83
2024-02-29T01:25:01.077Z,78.86
2024-02-29T01:25:11.774Z,78.83
2024-02-29T01:25:22.818Z,78.72
2024-02-29T01:25:33.790Z,78.76
2024-02-29T01:25:44.806Z,78.76
2024-02-29T01:25:55.490Z,78.72
2024-02-29T01:26:06.533Z,78.72
2024-02-29T01:26:17.490Z,78.76
2024-02-29T01:26:28.504Z,78.72
2024-02-29T01:26:39.201Z,78.76
2024-02-29T01:26:50.242Z,78.76
2024-02-29T01:27:01.206Z,78.76
2024-02-29T01:27:12.213Z,78.76
2024-02-29T01:27:22.962Z,78.86
2024-02-29T01:27:33.982Z,78.86
2024-02-29T01:27:44.960Z,78.86
2024-02-29T01:27:55.997Z,78.86
2024-02-29T01:28:06.679Z,78.97
2024-02-29T01:28:17.771Z,78.97
2024-02-29T01:28:28.697Z,78.97
2024-02-29T01:28:39.704Z,78.97
2024-02-29T01:28:50.392Z,78.97
2024-02-29T01:29:01.446Z,78.97
2024-02-29T01:29:12.405Z,78.93
2024-02-29T01:29:23.442Z,78.97
2024-02-29T01:29:34.145Z,78.97
2024-02-29T01:29:45.180Z,78.93
2024-02-29T01:29:56.159Z,78.97
2024-02-29T01:30:07.161Z,78.86
2024-02-29T01:30:17.889Z,78.97
2024-02-29T01:30:28.927Z,78.97
2024-02-29T01:30:39.939Z,78.97
2024-02-29T01:30:50.558Z,78.97
2024-02-29T01:31:01.285Z,79.07
2024-02-29T01:31:11.839Z,78.97
2024-02-29T01:31:22.776Z,78.97
2024-02-29T01:31:33.767Z,78.97
2024-02-29T01:31:44.458Z,78.97
2024-02-29T01:31:55.514Z,78.83
2024-02-29T01:32:15.531Z,78.86
2024-02-29T01:32:22.726Z,78.97
2024-02-29T01:32:30.591Z,78.86
2024-02-29T01:32:39.450Z,78.86
2024-02-29T01:32:49.989Z,78.86
2024-02-29T01:33:01.016Z,78.86
2024-02-29T01:33:11.815Z,78.86
2024-02-29T01:33:22.366Z,78.86
2024-02-29T01:33:33.377Z,78.86
2024-02-29T01:33:44.385Z,78.86
2024-02-29T01:33:55.107Z,78.86
2024-02-29T01:34:06.187Z,78.97
2024-02-29T01:34:17.166Z,78.97
2024-02-29T01:34:28.139Z,78.97
2024-02-29T01:34:38.821Z,78.97
2024-02-29T01:34:49.876Z,78.97
2024-02-29T01:35:00.845Z,78.97
2024-02-29T01:35:11.914Z,78.97
2024-02-29T01:35:22.609Z,78.97
2024-02-29T01:35:33.658Z,78.97
2024-02-29T01:35:44.612Z,79.07
2024-02-29T01:35:55.657Z,79.03
2024-02-29T01:36:06.319Z,79.07
2024-02-29T01:36:17.366Z,79.07
2024-02-29T01:36:28.326Z,79.07
2024-02-29T01:36:39.352Z,79.17
2024-02-29T01:36:50.067Z,79.07
2024-02-29T01:37:01.122Z,79.17
2024-02-29T01:37:12.087Z,79.17
2024-02-29T01:37:23.126Z,79.17
2024-02-29T01:37:33.795Z,79.17
2024-02-29T01:37:44.845Z,79.17
2024-02-29T01:37:55.813Z,79.17
2024-02-29T01:38:06.367Z,79.17
2024-02-29T01:38:17.045Z,79.17
2024-02-29T01:38:28.092Z,79.17
2024-02-29T01:38:39.064Z,79.17
2024-02-29T01:38:50.069Z,79.17
2024-02-29T01:39:00.749Z,79.17
2024-02-29T01:39:11.798Z,79.07
2024-02-29T01:39:22.773Z,79.07
2024-02-29T01:39:33.828Z,79.17
2024-02-29T01:39:44.483Z,79.14
2024-02-29T01:39:55.636Z,79.17
2024-02-29T01:40:06.609Z,79.14
2024-02-29T01:40:17.613Z,79.17
2024-02-29T01:40:28.290Z,79.17
2024-02-29T01:40:39.339Z,79.07
2024-02-29T01:40:50.296Z,79.07
2024-02-29T01:41:01.347Z,79.03
2024-02-29T01:41:12.018Z,79.07
2024-02-29T01:41:23.066Z,79.07
2024-02-29T01:41:34.031Z,79.07
2024-02-29T01:41:45.042Z,79.07
2024-02-29T01:41:55.720Z,79.07
2024-02-29T01:42:06.778Z,78.97
2024-02-29T01:42:17.750Z,78.97
2024-02-29T01:42:28.859Z,78.93
2024-02-29T01:42:39.662Z,78.97
2024-02-29T01:42:50.203Z,78.97
2024-02-29T01:43:01.200Z,78.97
2024-02-29T01:43:12.210Z,78.97
2024-02-29T01:43:22.881Z,78.97
2024-02-29T01:43:33.937Z,78.86
2024-02-29T01:43:44.884Z,78.83
2024-02-29T01:43:55.971Z,78.83
2024-02-29T01:44:06.650Z,78.76
2024-02-29T01:44:17.694Z,78.76
2024-02-29T01:44:28.673Z,78.76
2024-02-29T01:44:39.686Z,78.86
2024-02-29T01:44:50.352Z,78.86
2024-02-29T01:45:01.410Z,78.86
2024-02-29T01:45:12.382Z,78.83
2024-02-29T01:45:23.391Z,78.86
2024-02-29T01:45:34.120Z,78.86
2024-02-29T01:45:44.664Z,78.86
2024-02-29T01:45:55.599Z,78.97
2024-02-29T01:46:06.622Z,78.97
2024-02-29T01:46:17.359Z,78.97
2024-02-29T01:46:28.382Z,78.93
2024-02-29T01:46:39.340Z,78.93
2024-02-29T01:46:50.358Z,78.97
2024-02-29T01:47:01.025Z,78.97
2024-02-29T01:47:12.074Z,78.97
2024-02-29T01:47:23.062Z,78.97
2024-02-29T01:47:34.070Z,79.07
2024-02-29T01:47:44.766Z,79.07
2024-02-29T01:47:55.826Z,79.07
2024-02-29T01:48:06.805Z,79.07
2024-02-29T01:48:17.772Z,79.07
2024-02-29T01:48:28.469Z,79.07
2024-02-29T01:48:39.548Z,79.07
2024-02-29T01:48:50.515Z,79.07
2024-02-29T01:49:01.527Z,79.07
2024-02-29T01:49:12.197Z,79.03
2024-02-29T01:49:23.256Z,79.03
2024-02-29T01:49:34.226Z,79.07
2024-02-29T01:49:45.244Z,79.07
2024-02-29T01:49:55.935Z,79.07
2024-02-29T01:50:07.030Z,79.07
2024-02-29T01:50:18.011Z,79.07
2024-02-29T01:50:29.001Z,79.03
2024-02-29T01:50:39.807Z,79.07
2024-02-29T01:50:50.302Z,78.97
2024-02-29T01:51:01.253Z,78.97
2024-02-29T01:51:12.283Z,78.97
2024-02-29T01:51:22.971Z,78.93
2024-02-29T01:51:34.023Z,78.97
2024-02-29T01:51:45.004Z,78.97
2024-02-29T01:51:56.017Z,78.97
2024-02-29T01:52:06.728Z,78.83
2024-02-29T01:52:17.265Z,78.97
2024-02-29T01:52:28.214Z,78.97
2024-02-29T01:52:39.223Z,78.93
2024-02-29T01:52:49.905Z,78.93
2024-02-29T01:53:00.958Z,78.97
2024-02-29T01:53:11.909Z,78.97
2024-02-29T01:53:22.922Z,78.97
2024-02-29T01:53:34.904Z,78.93
2024-02-29T01:53:44.494Z,78.93
2024-02-29T01:53:55.445Z,78.97
2024-02-29T01:54:06.464Z,79.07
2024-02-29T01:54:17.142Z,79.07
2024-02-29T01:54:28.196Z,79.07
2024-02-29T01:54:39.204Z,79.03
2024-02-29T01:54:50.266Z,78.97
2024-02-29T01:55:00.988Z,78.93
2024-02-29T01:55:11.591Z,78.97
2024-02-29T01:55:22.013Z,78.93
2024-02-29T01:55:33.021Z,78.93
2024-02-29T01:55:43.696Z,78.97
2024-02-29T01:55:54.745Z,78.93
2024-02-29T01:56:05.709Z,78.93
2024-02-29T01:56:16.720Z,78.97
2024-02-29T01:56:27.406Z,78.93
2024-02-29T01:56:38.456Z,78.93
2024-02-29T01:56:49.423Z,78.97
2024-02-29T01:57:00.451Z,78.93
2024-02-29T01:57:11.150Z,78.97
2024-02-29T01:57:22.169Z,78.97
2024-02-29T01:57:33.174Z,78.97
2024-02-29T01:57:44.207Z,78.86
2024-02-29T01:57:54.916Z,78.83
2024-02-29T01:58:06.036Z,78.83
2024-02-29T01:58:16.583Z,78.86
2024-02-29T01:58:27.056Z,78.83
2024-02-29T01:58:37.710Z,78.86
2024-02-29T01:58:48.777Z,78.86
2024-02-29T01:58:59.721Z,78.86
2024-02-29T01:59:10.748Z,78.83
2024-02-29T01:59:21.435Z,78.86
2024-02-29T01:59:32.475Z,78.86
2024-02-29T01:59:43.456Z,78.86
2024-02-29T01:59:54.474Z,78.86
2024-02-29T02:00:05.157Z,78.86
2024-02-29T02:00:16.262Z,78.86
2024-02-29T02:00:27.191Z,78.86
2024-02-29T02:00:38.254Z,78.86
2024-02-29T02:00:49.025Z,78.86
2024-02-29T02:00:59.554Z,78.86
2024-02-29T02:01:10.570Z,78.97
2024-02-29T02:01:21.586Z,78.97
2024-02-29T02:01:32.406Z,78.97
2024-02-29T02:01:42.998Z,78.97
2024-02-29T02:01:53.954Z,78.97
2024-02-29T02:02:05.008Z,78.97
2024-02-29T02:02:15.640Z,78.97
2024-02-29T02:02:26.685Z,78.97
2024-02-29T02:02:37.659Z,78.97
2024-02-29T02:02:48.668Z,79.07
2024-02-29T02:02:59.360Z,79.07
2024-02-29T02:03:10.402Z,78.97
2024-02-29T02:03:21.362Z,79.07
2024-02-29T02:03:32.430Z,79.07
2024-02-29T02:03:43.127Z,79.07
2024-02-29T02:03:54.149Z,79.07
2024-02-29T02:04:05.220Z,79.07
2024-02-29T02:04:15.737Z,79.07
2024-02-29T02:04:26.441Z,79.17
2024-02-29T02:04:37.465Z,79.17
2024-02-29T02:04:48.476Z,79.17
2024-02-29T02:04:59.488Z,79.17
2024-02-29T02:05:10.161Z,79.17
2024-02-29T02:05:21.254Z,79.17
2024-02-29T02:05:32.192Z,79.17
2024-02-29T02:05:43.212Z,79.17
2024-02-29T02:05:53.924Z,79.17
2024-02-29T02:06:04.445Z,79.17
2024-02-29T02:06:15.411Z,79.17
2024-02-29T02:06:26.445Z,79.27
2024-02-29T02:06:37.139Z,79.17
2024-02-29T02:06:48.189Z,79.17
2024-02-29T02:06:59.140Z,79.17
2024-02-29T02:07:10.157Z,79.17
2024-02-29T02:07:20.797Z,79.17
2024-02-29T02:07:31.838Z,79.17
2024-02-29T02:07:42.804Z,79.17
2024-02-29T02:07:53.824Z,79.17
2024-02-29T02:08:04.492Z,79.17
2024-02-29T02:08:15.534Z,79.17
2024-02-29T02:08:26.567Z,79.17
2024-02-29T02:08:37.688Z,79.17
2024-02-29T02:08:48.343Z,79.17
2024-02-29T02:08:59.390Z,79.17
2024-02-29T02:09:10.338Z,79.17
2024-02-29T02:09:21.358Z,79.17
2024-02-29T02:09:32.054Z,79.17
2024-02-29T02:09:43.092Z,79.17
2024-02-29T02:09:54.138Z,79.27
2024-02-29T02:10:05.197Z,79.27
2024-02-29T02:10:15.964Z,79.27
2024-02-29T02:10:26.557Z,79.27
2024-02-29T02:10:37.464Z,79.27
2024-02-29T02:10:48.526Z,79.27
2024-02-29T02:10:59.239Z,79.27
2024-02-29T02:11:10.258Z,79.27
2024-02-29T02:11:21.299Z,79.27
2024-02-29T02:11:32.372Z,79.27
2024-02-29T02:11:43.016Z,79.27
2024-02-29T02:11:54.064Z,79.27
2024-02-29T02:12:05.036Z,79.27
2024-02-29T02:12:16.049Z,79.27
2024-02-29T02:12:26.712Z,79.27
2024-02-29T02:12:37.912Z,79.27
2024-02-29T02:12:48.318Z,79.27
2024-02-29T02:12:59.437Z,79.27
2024-02-29T02:13:10.136Z,79.27
2024-02-29T02:13:20.686Z,79.27
2024-02-29T02:13:31.630Z,79.27
2024-02-29T02:13:42.645Z,79.27
2024-02-29T02:13:53.330Z,79.27
2024-02-29T02:14:04.377Z,79.27
2024-02-29T02:14:15.332Z,79.27
2024-02-29T02:14:26.345Z,79.27
2024-02-29T02:14:37.032Z,79.27
2024-02-29T02:14:48.076Z,79.27
2024-02-29T02:14:59.105Z,79.38
2024-02-29T02:15:10.092Z,79.27
2024-02-29T02:15:20.769Z,79.27
2024-02-29T02:15:31.886Z,79.27
2024-02-29T02:15:42.851Z,79.27
2024-02-29T02:15:53.904Z,79.27
2024-02-29T02:16:04.572Z,79.27
2024-02-29T02:16:15.700Z,79.27
2024-02-29T02:16:26.715Z,79.27
2024-02-29T02:16:37.684Z,79.38
2024-02-29T02:16:48.364Z,79.38
2024-02-29T02:16:59.410Z,79.38
2024-02-29T02:17:10.441Z,79.38
2024-02-29T02:17:21.416Z,79.48
2024-02-29T02:17:32.104Z,79.48
2024-02-29T02:17:43.185Z,79.48
2024-02-29T02:17:54.157Z,79.48
2024-02-29T02:18:05.193Z,79.48
2024-02-29T02:18:15.828Z,79.48
2024-02-29T02:18:26.883Z,79.48
2024-02-29T02:18:37.891Z,79.48
2024-02-29T02:18:48.928Z,79.48
2024-02-29T02:18:59.624Z,79.48
2024-02-29T02:19:10.678Z,79.48
2024-02-29T02:19:21.605Z,79.48
2024-02-29T02:19:32.633Z,79.48
2024-02-29T02:19:43.295Z,79.48
2024-02-29T02:19:54.355Z,79.48
2024-02-29T02:20:05.312Z,79.44
2024-02-29T02:20:16.345Z,79.48